EDFH

Frankfurt-Hahn Airport

Hahn, Germany
METAR EDFH 221450Z 33008KT 300V010 9999 SHRA FEW003 SCT026CB BKN037 17/12 Q1013
Observed Flight Rules
May-22 @ 14:50 UTC (37 minutes ago) Visual Flight Rules
Wind Visibility Clouds Conditions
330° at 8 knots 10,000+ meters
  • Few at 300' AGL
  • Scattered at 2,600' AGL
  • Broken at 3,700' AGL
  • Rain
Temperatures Readings
Current 17°C / 63°F
Dewpoint 12°C / 54°F
Humidity 73%
Altimeter 29.91" Hg
Pressure 1013 hPa
Elevation 498
METAR EDFH 221450Z 33008KT 300V010 9999 SHRA FEW003 SCT026CB BKN037 17/12 Q1013
Observed Flight Rules
May-22 @ 14:50 UTC
(37 minutes ago)
VFR
Wind Visibility
330° at 8 knots 10,000+ meters
Clouds
  • Few at 300' AGL
  • Scattered at 2,600' AGL
  • Broken at 3,700' AGL
Conditions
  • Rain
Temperature Dewpoint
17°C / 63°F 12°C / 54°F
Humidity Altimeter Pressure
73% 29.91" Hg 1013 hPa